createdAt,value
2023-09-23T00:00:31.063Z,11.90
2023-09-23T00:01:31.001Z,11.87
2023-09-23T00:02:31.041Z,11.89
2023-09-23T00:03:31.197Z,11.86
2023-09-23T00:04:31.158Z,11.87
2023-09-23T00:05:31.095Z,11.86
2023-09-23T00:06:30.936Z,11.86
2023-09-23T00:07:30.948Z,11.86
2023-09-23T00:08:30.997Z,11.85
2023-09-23T00:09:30.947Z,11.85
2023-09-23T00:10:30.978Z,11.86
2023-09-23T00:11:31.100Z,11.86
2023-09-23T00:12:31.040Z,11.85
2023-09-23T00:13:31.269Z,11.86
2023-09-23T00:14:30.901Z,11.86
2023-09-23T00:15:30.942Z,11.87
2023-09-23T00:16:31.056Z,11.87
2023-09-23T00:17:30.884Z,11.86
2023-09-23T00:18:31.222Z,11.86
2023-09-23T00:19:31.154Z,11.87
2023-09-23T00:20:30.839Z,11.87
2023-09-23T00:21:30.945Z,11.90
2023-09-23T00:22:30.895Z,11.89
2023-09-23T00:23:30.817Z,11.93
2023-09-23T00:24:31.173Z,11.93
2023-09-23T00:25:30.892Z,11.93
2023-09-23T00:26:30.982Z,11.93
2023-09-23T00:27:30.704Z,11.93
2023-09-23T00:28:30.942Z,11.94
2023-09-23T00:29:30.736Z,11.96
2023-09-23T00:30:30.861Z,11.96
2023-09-23T00:31:30.657Z,11.93
2023-09-23T00:32:30.873Z,11.93
2023-09-23T00:33:30.674Z,11.94
2023-09-23T00:34:30.739Z,11.94
2023-09-23T00:35:30.645Z,11.94
2023-09-23T00:36:30.860Z,11.90
2023-09-23T00:37:30.615Z,11.87
2023-09-23T00:38:30.619Z,11.85
2023-09-23T00:39:30.827Z,11.83
2023-09-23T00:40:30.652Z,11.85
2023-09-23T00:41:30.730Z,11.83
2023-09-23T00:42:30.859Z,11.85
2023-09-23T00:43:30.616Z,11.83
2023-09-23T00:44:30.522Z,11.85
2023-09-23T00:45:30.658Z,11.83
2023-09-23T00:46:30.731Z,11.80
2023-09-23T00:47:30.528Z,11.77
2023-09-23T00:48:30.576Z,11.77
2023-09-23T00:49:30.504Z,11.74
2023-09-23T00:50:30.475Z,11.72
2023-09-23T00:51:30.637Z,11.70
2023-09-23T00:52:30.492Z,11.67
2023-09-23T00:53:30.666Z,11.65
2023-09-23T00:54:30.457Z,11.65
2023-09-23T00:55:30.447Z,11.65
2023-09-23T00:56:30.465Z,11.62
2023-09-23T00:57:30.396Z,11.61
2023-09-23T00:58:30.500Z,11.59
2023-09-23T00:59:30.582Z,11.54
2023-09-23T01:00:30.456Z,11.53
2023-09-23T01:01:30.430Z,11.49
2023-09-23T01:02:30.517Z,11.47
2023-09-23T01:03:30.464Z,11.44
2023-09-23T01:04:30.340Z,11.41
2023-09-23T01:05:30.844Z,11.38
2023-09-23T01:06:30.354Z,11.36
2023-09-23T01:07:30.310Z,11.35
2023-09-23T01:08:30.331Z,11.32
2023-09-23T01:09:30.396Z,11.32
2023-09-23T01:10:30.398Z,11.32
2023-09-23T01:11:30.277Z,11.32
2023-09-23T01:12:30.318Z,11.32
2023-09-23T01:13:30.434Z,11.32
2023-09-23T01:14:30.262Z,11.32
2023-09-23T01:15:30.673Z,11.34
2023-09-23T01:16:30.850Z,11.32
2023-09-23T01:17:30.406Z,11.34
2023-09-23T01:18:30.543Z,11.35
2023-09-23T01:19:30.224Z,11.38
2023-09-23T01:20:30.408Z,11.39
2023-09-23T01:21:30.353Z,11.39
2023-09-23T01:22:30.228Z,11.43
2023-09-23T01:23:30.260Z,11.44
2023-09-23T01:24:30.303Z,11.47
2023-09-23T01:25:30.305Z,11.49
2023-09-23T01:26:30.156Z,11.49
2023-09-23T01:27:30.289Z,11.47
2023-09-23T01:28:30.146Z,11.47
2023-09-23T01:29:30.122Z,11.49
2023-09-23T01:30:30.123Z,11.47
2023-09-23T01:31:30.142Z,11.47
2023-09-23T01:32:30.259Z,11.43
2023-09-23T01:33:30.312Z,11.39
2023-09-23T01:34:30.124Z,11.35
2023-09-23T01:35:30.038Z,11.32
2023-09-23T01:36:30.080Z,11.31
2023-09-23T01:37:30.019Z,11.31
2023-09-23T01:38:30.044Z,11.28
2023-09-23T01:39:30.027Z,11.27
2023-09-23T01:40:29.988Z,11.25
2023-09-23T01:41:29.989Z,11.24
2023-09-23T01:42:29.996Z,11.20
2023-09-23T01:43:30.028Z,11.19
2023-09-23T01:44:30.347Z,11.19
2023-09-23T01:45:30.147Z,11.20
2023-09-23T01:46:29.991Z,11.21
2023-09-23T01:47:30.336Z,11.21
2023-09-23T01:48:29.943Z,11.21
2023-09-23T01:49:29.914Z,11.24
2023-09-23T01:50:29.894Z,11.25
2023-09-23T01:51:29.927Z,11.27
2023-09-23T01:52:29.907Z,11.28
2023-09-23T01:53:30.395Z,11.29
2023-09-23T01:54:29.902Z,11.31
2023-09-23T01:55:30.046Z,11.31
2023-09-23T01:56:29.863Z,11.32
2023-09-23T01:57:29.868Z,11.29
2023-09-23T01:58:29.871Z,11.29
2023-09-23T01:59:30.328Z,11.28
2023-09-23T02:00:30.427Z,11.27
2023-09-23T02:01:30.022Z,11.27
2023-09-23T02:02:30.486Z,11.27
2023-09-23T02:03:29.937Z,11.25
2023-09-23T02:04:29.973Z,11.24
2023-09-23T02:05:29.754Z,11.19
2023-09-23T02:06:29.713Z,11.17
2023-09-23T02:07:29.764Z,11.16
2023-09-23T02:08:29.668Z,11.16
2023-09-23T02:09:29.687Z,11.17
2023-09-23T02:10:29.804Z,11.19
2023-09-23T02:11:29.872Z,11.19
2023-09-23T02:12:29.701Z,11.19
2023-09-23T02:13:29.873Z,11.17
2023-09-23T02:14:29.679Z,11.14
2023-09-23T02:15:29.698Z,11.11
2023-09-23T02:16:29.968Z,11.14
2023-09-23T02:17:29.809Z,11.16
2023-09-23T02:18:29.628Z,11.19
2023-09-23T02:19:29.849Z,11.19
2023-09-23T02:20:29.715Z,11.17
2023-09-23T02:21:29.750Z,11.19
2023-09-23T02:22:29.648Z,11.17
2023-09-23T02:23:29.878Z,11.16
2023-09-23T02:24:29.776Z,11.13
2023-09-23T02:25:29.741Z,11.16
2023-09-23T02:26:29.504Z,11.16
2023-09-23T02:27:29.542Z,11.14
2023-09-23T02:28:29.562Z,11.16
2023-09-23T02:29:29.999Z,11.16
2023-09-23T02:30:29.750Z,11.17
2023-09-23T02:31:29.634Z,11.20
2023-09-23T02:32:29.630Z,11.21
2023-09-23T02:33:29.548Z,11.24
2023-09-23T02:34:29.518Z,11.24
2023-09-23T02:35:29.473Z,11.28
2023-09-23T02:36:29.550Z,11.29
2023-09-23T02:37:29.585Z,11.29
2023-09-23T02:38:29.428Z,11.31
2023-09-23T02:39:29.616Z,11.31
2023-09-23T02:40:29.482Z,11.31
2023-09-23T02:41:29.723Z,11.32
2023-09-23T02:42:29.373Z,11.34
2023-09-23T02:43:29.712Z,11.34
2023-09-23T02:44:29.583Z,11.38
2023-09-23T02:45:29.557Z,11.38
2023-09-23T02:46:29.403Z,11.38
2023-09-23T02:47:29.424Z,11.38
2023-09-23T02:48:29.334Z,11.39
2023-09-23T02:49:29.508Z,11.41
2023-09-23T02:50:29.352Z,11.39
2023-09-23T02:51:30.002Z,11.41
2023-09-23T02:52:29.318Z,11.38
2023-09-23T02:53:29.322Z,11.38
2023-09-23T02:54:29.245Z,11.38
2023-09-23T02:55:29.243Z,11.38
2023-09-23T02:56:29.284Z,11.36
2023-09-23T02:57:29.212Z,11.34
2023-09-23T02:58:29.491Z,11.34
2023-09-23T02:59:29.295Z,11.32
2023-09-23T03:00:29.239Z,11.31
2023-09-23T03:01:29.249Z,11.29
2023-09-23T03:02:29.522Z,11.29
2023-09-23T03:03:29.370Z,11.31
2023-09-23T03:04:29.372Z,11.29
2023-09-23T03:05:29.201Z,11.28
2023-09-23T03:06:29.266Z,11.28
2023-09-23T03:07:29.315Z,11.27
2023-09-23T03:08:29.972Z,11.27
2023-09-23T03:09:29.379Z,11.27
2023-09-23T03:10:29.149Z,11.25
2023-09-23T03:11:29.196Z,11.24
2023-09-23T03:12:29.372Z,11.24
2023-09-23T03:13:29.168Z,11.24
2023-09-23T03:14:29.492Z,11.25
2023-09-23T03:15:29.239Z,11.25
2023-09-23T03:16:29.182Z,11.27
2023-09-23T03:17:30.109Z,11.25
2023-09-23T03:18:29.189Z,11.28
2023-09-23T03:19:29.091Z,11.29
2023-09-23T03:20:29.221Z,11.32
2023-09-23T03:21:29.008Z,11.34
2023-09-23T03:22:29.039Z,11.31
2023-09-23T03:23:28.977Z,11.31
2023-09-23T03:24:29.200Z,11.29
2023-09-23T03:25:28.966Z,11.29
2023-09-23T03:26:28.932Z,11.31
2023-09-23T03:27:28.915Z,11.28
2023-09-23T03:28:28.947Z,11.28
2023-09-23T03:29:29.011Z,11.31
2023-09-23T03:30:28.919Z,11.29
2023-09-23T03:31:28.986Z,11.28
2023-09-23T03:32:29.063Z,11.25
2023-09-23T03:33:28.992Z,11.24
2023-09-23T03:34:28.910Z,11.21
2023-09-23T03:35:29.325Z,11.24
2023-09-23T03:36:28.904Z,11.21
2023-09-23T03:37:28.860Z,11.20
2023-09-23T03:38:29.598Z,11.21
2023-09-23T03:39:28.786Z,11.19
2023-09-23T03:40:28.793Z,11.19
2023-09-23T03:41:29.030Z,11.17
2023-09-23T03:42:28.736Z,11.16
2023-09-23T03:43:28.743Z,11.17
2023-09-23T03:44:28.737Z,11.17
2023-09-23T03:45:28.732Z,11.19
2023-09-23T03:46:28.949Z,11.19
2023-09-23T03:47:28.756Z,11.17
2023-09-23T03:48:28.703Z,11.17
2023-09-23T03:49:28.698Z,11.19
2023-09-23T03:50:28.671Z,11.14
2023-09-23T03:51:28.786Z,11.16
2023-09-23T03:52:28.735Z,11.14
2023-09-23T03:53:28.877Z,11.14
2023-09-23T03:54:28.745Z,11.13
2023-09-23T03:55:28.796Z,11.11
2023-09-23T03:56:28.665Z,11.10
2023-09-23T03:57:28.786Z,11.10
2023-09-23T03:58:28.799Z,11.10
2023-09-23T03:59:28.626Z,11.11
2023-09-23T04:00:28.560Z,11.09
2023-09-23T04:01:29.230Z,11.07
2023-09-23T04:02:28.707Z,11.07
2023-09-23T04:03:28.837Z,11.06
2023-09-23T04:04:28.600Z,11.09
2023-09-23T04:05:28.729Z,11.10
2023-09-23T04:06:28.731Z,11.13
2023-09-23T04:07:28.519Z,11.11
2023-09-23T04:08:28.500Z,11.14
2023-09-23T04:09:28.558Z,11.14
2023-09-23T04:10:28.604Z,11.16
2023-09-23T04:11:28.709Z,11.17
2023-09-23T04:12:28.553Z,11.14
2023-09-23T04:13:28.525Z,11.16
2023-09-23T04:14:28.452Z,11.14
2023-09-23T04:15:28.580Z,11.14
2023-09-23T04:16:28.532Z,11.13
2023-09-23T04:17:28.588Z,11.13
2023-09-23T04:18:28.550Z,11.13
2023-09-23T04:19:28.689Z,11.14
2023-09-23T04:20:28.480Z,11.14
2023-09-23T04:21:28.403Z,11.17
2023-09-23T04:22:28.739Z,11.19
2023-09-23T04:23:28.505Z,11.19
2023-09-23T04:24:28.604Z,11.20
2023-09-23T04:25:28.422Z,11.20
2023-09-23T04:26:28.477Z,11.19
2023-09-23T04:27:28.492Z,11.19
2023-09-23T04:28:28.517Z,11.16
2023-09-23T04:29:28.349Z,11.14
2023-09-23T04:30:28.433Z,11.13
2023-09-23T04:31:28.273Z,11.13
2023-09-23T04:32:28.438Z,11.11
2023-09-23T04:33:28.505Z,11.10
2023-09-23T04:34:28.351Z,11.09
2023-09-23T04:35:28.362Z,11.10
2023-09-23T04:36:28.252Z,11.09
2023-09-23T04:37:28.517Z,11.07
2023-09-23T04:38:29.121Z,11.09
2023-09-23T04:39:28.222Z,11.09
2023-09-23T04:40:28.447Z,11.07
2023-09-23T04:41:28.232Z,11.07
2023-09-23T04:42:28.243Z,11.09
2023-09-23T04:43:28.304Z,11.11
2023-09-23T04:44:28.144Z,11.13
2023-09-23T04:45:28.391Z,11.14
2023-09-23T04:46:28.410Z,11.16
2023-09-23T04:47:28.232Z,11.16
2023-09-23T04:48:28.420Z,11.17
2023-09-23T04:49:28.269Z,11.20
2023-09-23T04:50:28.266Z,11.21
2023-09-23T04:51:28.231Z,11.21
2023-09-23T04:52:28.118Z,11.21
2023-09-23T04:53:28.075Z,11.21
2023-09-23T04:54:28.060Z,11.24
2023-09-23T04:55:28.215Z,11.24
2023-09-23T04:56:28.074Z,11.25
2023-09-23T04:57:28.105Z,11.25
2023-09-23T04:58:28.111Z,11.27
2023-09-23T04:59:28.037Z,11.28
2023-09-23T05:00:28.017Z,11.27
2023-09-23T05:01:27.962Z,11.27
2023-09-23T05:02:28.352Z,11.24
2023-09-23T05:03:28.094Z,11.21
2023-09-23T05:04:28.062Z,11.20
2023-09-23T05:05:28.032Z,11.19
2023-09-23T05:06:28.053Z,11.20
2023-09-23T05:07:28.151Z,11.19
2023-09-23T05:08:28.181Z,11.16
2023-09-23T05:09:28.104Z,11.19
2023-09-23T05:10:28.022Z,11.20
2023-09-23T05:11:28.130Z,11.20
2023-09-23T05:12:27.885Z,11.24
2023-09-23T05:13:27.890Z,11.24
2023-09-23T05:14:27.917Z,11.25
2023-09-23T05:15:27.944Z,11.29
2023-09-23T05:16:28.030Z,11.28
2023-09-23T05:17:27.937Z,11.31
2023-09-23T05:18:27.817Z,11.32
2023-09-23T05:19:27.836Z,11.34
2023-09-23T05:20:27.886Z,11.36
2023-09-23T05:21:28.021Z,11.38
2023-09-23T05:22:27.900Z,11.38
2023-09-23T05:23:27.833Z,11.39
2023-09-23T05:24:27.782Z,11.39
2023-09-23T05:25:27.762Z,11.41
2023-09-23T05:26:28.171Z,11.39
2023-09-23T05:27:27.951Z,11.38
2023-09-23T05:28:27.791Z,11.36
2023-09-23T05:29:27.805Z,11.35
2023-09-23T05:30:27.730Z,11.36
2023-09-23T05:31:27.742Z,11.38
2023-09-23T05:32:27.775Z,11.36
2023-09-23T05:33:27.872Z,11.36
2023-09-23T05:34:27.800Z,11.39
2023-09-23T05:35:27.752Z,11.38
2023-09-23T05:36:27.689Z,11.39
2023-09-23T05:37:27.767Z,11.39
2023-09-23T05:38:27.746Z,11.38
2023-09-23T05:39:27.994Z,11.38
2023-09-23T05:40:28.922Z,11.38
2023-09-23T05:41:27.818Z,11.41
2023-09-23T05:42:27.705Z,11.41
2023-09-23T05:43:27.566Z,11.41
2023-09-23T05:44:27.721Z,11.43
2023-09-23T05:45:27.932Z,11.44
2023-09-23T05:46:27.636Z,11.43
2023-09-23T05:47:27.742Z,11.44
2023-09-23T05:48:27.732Z,11.44
2023-09-23T05:49:27.510Z,11.44
2023-09-23T05:50:27.565Z,11.43
2023-09-23T05:51:27.562Z,11.44
2023-09-23T05:52:27.668Z,11.46
2023-09-23T05:53:27.620Z,11.49
2023-09-23T05:54:27.536Z,11.50
2023-09-23T05:55:27.610Z,11.52
2023-09-23T05:56:27.694Z,11.53
2023-09-23T05:57:27.473Z,11.49
2023-09-23T05:58:27.730Z,11.46
2023-09-23T05:59:27.699Z,11.50
2023-09-23T06:00:27.398Z,11.52
2023-09-23T06:01:27.463Z,11.54
2023-09-23T06:02:27.482Z,11.56
2023-09-23T06:03:27.544Z,11.57
2023-09-23T06:04:27.596Z,11.54
2023-09-23T06:05:28.770Z,11.57
2023-09-23T06:06:27.396Z,11.57
2023-09-23T06:07:27.319Z,11.62
2023-09-23T06:08:27.453Z,11.67
2023-09-23T06:09:27.474Z,11.70
2023-09-23T06:10:27.426Z,11.71
2023-09-23T06:11:27.412Z,11.72
2023-09-23T06:12:27.323Z,11.72
2023-09-23T06:13:27.296Z,11.77
2023-09-23T06:14:27.272Z,11.82
2023-09-23T06:15:27.254Z,11.80
2023-09-23T06:16:27.333Z,11.78
2023-09-23T06:17:27.394Z,11.77
2023-09-23T06:18:27.318Z,11.74
2023-09-23T06:19:27.232Z,11.71
2023-09-23T06:20:27.305Z,11.71
2023-09-23T06:21:27.228Z,11.74
2023-09-23T06:22:27.234Z,11.75
2023-09-23T06:23:27.230Z,11.78
2023-09-23T06:24:27.192Z,11.82
2023-09-23T06:25:27.189Z,11.83
2023-09-23T06:26:27.224Z,11.85
2023-09-23T06:27:27.300Z,11.86
2023-09-23T06:28:27.195Z,11.86
2023-09-23T06:29:27.276Z,11.89
2023-09-23T06:30:27.278Z,11.89
2023-09-23T06:31:27.097Z,11.90
2023-09-23T06:32:27.324Z,11.94
2023-09-23T06:33:27.083Z,11.99
2023-09-23T06:34:27.080Z,12.04
2023-09-23T06:35:27.135Z,12.08
2023-09-23T06:36:27.233Z,12.05
2023-09-23T06:37:27.017Z,12.06
2023-09-23T06:38:27.074Z,12.09
2023-09-23T06:39:27.078Z,12.13
2023-09-23T06:40:27.018Z,12.20
2023-09-23T06:41:27.352Z,12.27
2023-09-23T06:42:27.400Z,12.37
2023-09-23T06:43:27.077Z,12.37
2023-09-23T06:44:27.191Z,12.33
2023-09-23T06:45:27.445Z,12.30
2023-09-23T06:46:27.180Z,12.29
2023-09-23T06:47:27.323Z,12.31
2023-09-23T06:48:27.176Z,12.34
2023-09-23T06:49:27.117Z,12.42
2023-09-23T06:50:27.093Z,12.49
2023-09-23T06:51:26.881Z,12.52
2023-09-23T06:52:26.911Z,12.52
2023-09-23T06:53:27.004Z,12.46
2023-09-23T06:54:26.959Z,12.49
2023-09-23T06:55:26.965Z,12.60
2023-09-23T06:56:26.883Z,12.62
2023-09-23T06:57:26.863Z,12.62
2023-09-23T06:58:26.858Z,12.63
2023-09-23T06:59:26.936Z,12.64
2023-09-23T07:00:26.988Z,12.64
2023-09-23T07:01:27.022Z,12.62
2023-09-23T07:02:26.982Z,12.63
2023-09-23T07:03:26.923Z,12.69
2023-09-23T07:04:26.902Z,12.79
2023-09-23T07:05:26.833Z,12.81
2023-09-23T07:06:26.835Z,12.82
2023-09-23T07:07:27.097Z,12.84
2023-09-23T07:08:26.795Z,12.78
2023-09-23T07:09:26.720Z,12.75
2023-09-23T07:10:27.161Z,12.78
2023-09-23T07:11:26.841Z,12.78
2023-09-23T07:12:27.298Z,12.79
2023-09-23T07:13:26.988Z,12.77
2023-09-23T07:14:26.752Z,12.74
2023-09-23T07:15:26.700Z,12.74
2023-09-23T07:16:26.747Z,12.75
2023-09-23T07:17:27.041Z,12.74
2023-09-23T07:18:26.619Z,12.74
2023-09-23T07:19:26.611Z,12.74
2023-09-23T07:20:26.647Z,12.77
2023-09-23T07:21:26.583Z,12.84
2023-09-23T07:22:26.679Z,12.93
2023-09-23T07:23:26.690Z,12.97
2023-09-23T07:24:26.611Z,13.24
2023-09-23T07:25:26.875Z,13.29
2023-09-23T07:26:26.698Z,13.36
2023-09-23T07:27:26.774Z,13.33
2023-09-23T07:28:26.574Z,13.27
2023-09-23T07:29:26.572Z,13.27
2023-09-23T07:30:26.695Z,13.32
2023-09-23T07:31:26.542Z,13.37
2023-09-23T07:32:26.894Z,13.43
2023-09-23T07:33:26.857Z,13.44
2023-09-23T07:34:26.536Z,13.36
2023-09-23T07:35:26.688Z,13.25
2023-09-23T07:36:26.579Z,13.25
2023-09-23T07:37:26.466Z,13.36
2023-09-23T07:38:27.212Z,13.47
2023-09-23T07:39:26.400Z,13.59
2023-09-23T07:40:26.471Z,13.63
2023-09-23T07:41:26.446Z,13.69
2023-09-23T07:42:26.464Z,13.69
2023-09-23T07:43:26.534Z,13.62
2023-09-23T07:44:26.357Z,13.55
2023-09-23T07:45:26.510Z,13.59
2023-09-23T07:46:26.447Z,13.62
2023-09-23T07:47:26.386Z,13.69
2023-09-23T07:48:26.343Z,13.73
2023-09-23T07:49:26.347Z,13.77
2023-09-23T07:50:26.356Z,13.79
2023-09-23T07:51:26.315Z,13.76
2023-09-23T07:52:26.352Z,13.77
2023-09-23T07:53:26.378Z,13.76
2023-09-23T07:54:26.282Z,13.70
2023-09-23T07:55:26.839Z,13.69
2023-09-23T07:56:26.607Z,13.69
2023-09-23T07:57:27.059Z,13.61
2023-09-23T07:58:26.660Z,13.55
2023-09-23T07:59:26.379Z,13.47
2023-09-23T08:00:28.010Z,13.41
2023-09-23T08:01:26.342Z,13.36
2023-09-23T08:02:26.971Z,13.36
2023-09-23T08:03:26.209Z,13.38
2023-09-23T08:04:26.435Z,13.37
2023-09-23T08:05:26.173Z,13.37
2023-09-23T08:06:26.133Z,13.33
2023-09-23T08:07:26.135Z,13.32
2023-09-23T08:08:26.207Z,13.21
2023-09-23T08:09:26.142Z,13.24
2023-09-23T08:10:26.164Z,13.32
2023-09-23T08:11:26.133Z,13.40
2023-09-23T08:12:26.130Z,13.49
2023-09-23T08:13:26.335Z,13.55
2023-09-23T08:14:26.483Z,13.59
2023-09-23T08:15:26.115Z,13.67
2023-09-23T08:16:26.320Z,13.80
2023-09-23T08:17:26.128Z,13.89
2023-09-23T08:18:26.078Z,13.94
2023-09-23T08:19:26.267Z,13.87
2023-09-23T08:20:26.567Z,13.84
2023-09-23T08:21:26.135Z,13.84
2023-09-23T08:22:26.131Z,13.73
2023-09-23T08:23:26.121Z,13.70
2023-09-23T08:24:25.956Z,13.70
2023-09-23T08:25:26.283Z,13.67
2023-09-23T08:26:26.504Z,13.69
2023-09-23T08:27:25.953Z,13.76
2023-09-23T08:28:26.207Z,13.83
2023-09-23T08:29:26.167Z,13.81
2023-09-23T08:30:25.941Z,13.79
2023-09-23T08:31:25.949Z,13.80
2023-09-23T08:32:26.344Z,13.84
2023-09-23T08:33:26.757Z,13.89
2023-09-23T08:34:25.947Z,14.01
2023-09-23T08:35:25.911Z,14.06
2023-09-23T08:36:26.177Z,14.12
2023-09-23T08:37:26.078Z,14.20
2023-09-23T08:38:25.855Z,14.21
2023-09-23T08:39:25.793Z,14.27
2023-09-23T08:40:25.845Z,14.31
2023-09-23T08:41:25.829Z,14.35
2023-09-23T08:42:25.787Z,14.37
2023-09-23T08:43:26.005Z,14.32
2023-09-23T08:44:26.049Z,14.28
2023-09-23T08:45:26.654Z,14.21
2023-09-23T08:46:25.907Z,14.24
2023-09-23T08:47:26.148Z,14.20
2023-09-23T08:48:25.864Z,14.19
2023-09-23T08:49:25.964Z,14.24
2023-09-23T08:50:26.004Z,14.29
2023-09-23T08:51:25.713Z,14.34
2023-09-23T08:52:25.801Z,14.39
2023-09-23T08:53:25.693Z,14.49
2023-09-23T08:54:25.673Z,14.56
2023-09-23T08:55:25.670Z,14.57
2023-09-23T08:56:25.949Z,14.67
2023-09-23T08:57:25.638Z,14.74
2023-09-23T08:58:25.663Z,14.74
2023-09-23T08:59:25.950Z,14.80
2023-09-23T09:00:25.596Z,14.87
2023-09-23T09:01:26.427Z,14.78
2023-09-23T09:02:25.750Z,14.84
2023-09-23T09:03:25.941Z,14.90
2023-09-23T09:04:25.594Z,15.05
2023-09-23T09:05:25.720Z,15.17
2023-09-23T09:06:25.665Z,15.42
2023-09-23T09:07:25.678Z,15.48
2023-09-23T09:08:25.781Z,15.66
2023-09-23T09:09:25.647Z,16.04
2023-09-23T09:10:25.685Z,16.33
2023-09-23T09:11:25.724Z,16.73
2023-09-23T09:12:25.519Z,16.81
2023-09-23T09:13:25.556Z,17.00
2023-09-23T09:14:26.104Z,17.22
2023-09-23T09:15:25.662Z,17.54
2023-09-23T09:16:25.602Z,17.88
2023-09-23T09:17:25.751Z,18.17
2023-09-23T09:18:25.469Z,18.46
2023-09-23T09:19:25.411Z,18.77
2023-09-23T09:20:25.434Z,19.02
2023-09-23T09:21:25.385Z,19.31
2023-09-23T09:22:25.911Z,19.32
2023-09-23T09:23:25.772Z,19.50
2023-09-23T09:24:25.537Z,19.95
2023-09-23T09:25:25.402Z,20.43
2023-09-23T09:26:25.380Z,20.66
2023-09-23T09:27:25.461Z,20.50
2023-09-23T09:28:25.465Z,20.42
2023-09-23T09:29:25.392Z,21.04
2023-09-23T09:30:25.522Z,20.90
2023-09-23T09:31:25.357Z,20.93
2023-09-23T09:32:25.500Z,21.04
2023-09-23T09:33:25.264Z,21.61
2023-09-23T09:34:25.522Z,22.07
2023-09-23T09:35:25.375Z,22.28
2023-09-23T09:36:25.492Z,21.76
2023-09-23T09:37:25.230Z,21.20
2023-09-23T09:38:25.269Z,21.06
2023-09-23T09:39:25.212Z,20.65
2023-09-23T09:40:25.437Z,20.47
2023-09-23T09:41:25.459Z,19.73
2023-09-23T09:42:25.259Z,19.24
2023-09-23T09:43:25.345Z,19.95
2023-09-23T09:44:25.357Z,19.98
2023-09-23T09:45:25.366Z,20.20
2023-09-23T09:46:25.482Z,20.54
2023-09-23T09:47:25.467Z,20.33
2023-09-23T09:48:25.170Z,20.28
2023-09-23T09:49:25.109Z,20.86
2023-09-23T09:50:25.163Z,20.66
2023-09-23T09:51:25.125Z,20.46
2023-09-23T09:52:25.146Z,20.18
2023-09-23T09:53:25.270Z,20.03
2023-09-23T09:54:25.126Z,19.76
2023-09-23T09:55:25.103Z,19.40
2023-09-23T09:56:25.262Z,19.21
2023-09-23T09:57:25.073Z,19.01
2023-09-23T09:58:25.068Z,18.91
2023-09-23T09:59:25.043Z,18.83
2023-09-23T10:00:25.037Z,18.65
2023-09-23T10:01:25.067Z,18.47
2023-09-23T10:02:25.310Z,18.24
2023-09-23T10:03:25.068Z,18.07
2023-09-23T10:04:25.031Z,17.99
2023-09-23T10:05:24.997Z,18.03
2023-09-23T10:06:25.157Z,18.04
2023-09-23T10:07:24.958Z,18.22
2023-09-23T10:08:24.996Z,18.09
2023-09-23T10:09:25.100Z,17.87
2023-09-23T10:10:25.150Z,17.76
2023-09-23T10:11:25.271Z,18.47
2023-09-23T10:12:25.161Z,19.90
2023-09-23T10:13:25.164Z,21.21
2023-09-23T10:14:24.958Z,21.23
2023-09-23T10:15:25.050Z,21.56
2023-09-23T10:16:25.180Z,22.07
2023-09-23T10:17:24.961Z,22.46
2023-09-23T10:18:25.120Z,22.20
2023-09-23T10:19:25.199Z,22.78
2023-09-23T10:20:24.949Z,23.58
2023-09-23T10:21:24.791Z,24.49
2023-09-23T10:22:25.059Z,25.32
2023-09-23T10:23:24.847Z,25.82
2023-09-23T10:24:24.876Z,25.75
2023-09-23T10:25:25.314Z,25.71
2023-09-23T10:26:25.078Z,25.86
2023-09-23T10:27:25.442Z,25.28
2023-09-23T10:28:25.272Z,24.76
2023-09-23T10:29:24.986Z,24.23
2023-09-23T10:30:25.096Z,23.60
2023-09-23T10:31:24.909Z,23.07
2023-09-23T10:32:25.126Z,21.97
2023-09-23T10:33:24.970Z,21.13
2023-09-23T10:34:30.794Z,20.76
2023-09-23T10:35:24.720Z,20.39
2023-09-23T10:36:24.665Z,19.86
2023-09-23T10:37:24.630Z,19.46
2023-09-23T10:38:25.066Z,19.50
2023-09-23T10:39:24.678Z,19.42
2023-09-23T10:40:25.187Z,19.84
2023-09-23T10:41:24.660Z,20.80
2023-09-23T10:42:24.983Z,21.60
2023-09-23T10:43:24.806Z,22.41
2023-09-23T10:44:24.784Z,22.25
2023-09-23T10:45:24.565Z,22.34
2023-09-23T10:46:24.804Z,22.67
2023-09-23T10:47:25.030Z,22.31
2023-09-23T10:48:24.577Z,22.35
2023-09-23T10:49:24.565Z,22.28
2023-09-23T10:50:24.984Z,21.95
2023-09-23T10:51:24.704Z,21.54
2023-09-23T10:52:24.689Z,21.17
2023-09-23T10:53:24.804Z,21.13
2023-09-23T10:54:24.788Z,21.34
2023-09-23T10:55:24.464Z,22.23
2023-09-23T10:56:24.963Z,22.75
2023-09-23T10:57:24.444Z,23.20
2023-09-23T10:58:24.668Z,23.86
2023-09-23T10:59:24.551Z,24.59
2023-09-23T11:00:24.382Z,23.89
2023-09-23T11:01:24.396Z,22.75
2023-09-23T11:02:24.586Z,21.51
2023-09-23T11:03:24.586Z,21.01
2023-09-23T11:04:24.511Z,21.17
2023-09-23T11:05:24.568Z,20.79
2023-09-23T11:06:24.510Z,20.72
2023-09-23T11:07:24.364Z,20.96
2023-09-23T11:08:24.427Z,20.58
2023-09-23T11:09:25.275Z,20.31
2023-09-23T11:10:24.363Z,20.02
2023-09-23T11:11:24.746Z,19.94
2023-09-23T11:12:24.287Z,19.79
2023-09-23T11:13:24.289Z,19.63
2023-09-23T11:14:24.395Z,19.40
2023-09-23T11:15:24.890Z,19.31
2023-09-23T11:16:24.346Z,19.14
2023-09-23T11:17:24.732Z,18.97
2023-09-23T11:18:24.250Z,19.06
2023-09-23T11:19:24.244Z,19.10
2023-09-23T11:20:24.222Z,19.91
2023-09-23T11:21:24.394Z,20.91
2023-09-23T11:22:24.257Z,21.64
2023-09-23T11:23:24.441Z,22.50
2023-09-23T11:24:24.584Z,23.24
2023-09-23T11:25:24.175Z,23.47
2023-09-23T11:26:24.186Z,23.70
2023-09-23T11:27:24.285Z,24.26
2023-09-23T11:28:24.555Z,24.75
2023-09-23T11:29:24.309Z,24.92
2023-09-23T11:30:24.217Z,25.19
2023-09-23T11:31:24.859Z,24.83
2023-09-23T11:32:24.237Z,24.71
2023-09-23T11:33:24.445Z,24.57
2023-09-23T11:34:24.954Z,24.59
2023-09-23T11:35:24.127Z,24.69
2023-09-23T11:36:24.045Z,24.71
2023-09-23T11:37:24.138Z,24.00
2023-09-23T11:38:24.103Z,23.53
2023-09-23T11:39:24.131Z,23.04
2023-09-23T11:40:24.072Z,23.20
2023-09-23T11:41:24.198Z,22.50
2023-09-23T11:42:23.996Z,21.98
2023-09-23T11:43:24.126Z,21.50
2023-09-23T11:44:24.008Z,20.90
2023-09-23T11:45:24.366Z,20.50
2023-09-23T11:46:24.245Z,20.23
2023-09-23T11:47:24.128Z,20.27
2023-09-23T11:48:23.962Z,20.12
2023-09-23T11:49:24.188Z,19.98
2023-09-23T11:50:23.994Z,19.90
2023-09-23T11:51:23.876Z,19.98
2023-09-23T11:52:23.938Z,20.16
2023-09-23T11:53:23.926Z,20.99
2023-09-23T11:54:23.981Z,22.22
2023-09-23T11:55:23.910Z,23.43
2023-09-23T11:56:24.058Z,23.27
2023-09-23T11:57:23.832Z,22.90
2023-09-23T11:58:24.098Z,23.79
2023-09-23T11:59:23.856Z,24.34
2023-09-23T12:00:24.066Z,24.13
2023-09-23T12:01:23.778Z,23.52
2023-09-23T12:02:23.957Z,22.78
2023-09-23T12:03:24.013Z,22.13
2023-09-23T12:04:24.112Z,21.51
2023-09-23T12:05:24.462Z,21.08
2023-09-23T12:06:24.001Z,20.53
2023-09-23T12:07:23.760Z,20.20
2023-09-23T12:08:23.762Z,19.75
2023-09-23T12:09:23.763Z,19.42
2023-09-23T12:10:24.050Z,19.18
2023-09-23T12:11:23.693Z,18.98
2023-09-23T12:12:23.696Z,18.86
2023-09-23T12:13:23.660Z,18.76
2023-09-23T12:14:23.741Z,18.86
2023-09-23T12:15:24.301Z,20.25
2023-09-23T12:16:23.750Z,21.82
2023-09-23T12:17:23.672Z,23.19
2023-09-23T12:18:23.665Z,24.14
2023-09-23T12:19:23.632Z,23.83
2023-09-23T12:20:23.697Z,23.34
2023-09-23T12:21:23.625Z,23.23
2023-09-23T12:22:23.592Z,23.31
2023-09-23T12:23:23.669Z,23.83
2023-09-23T12:24:23.557Z,24.20
2023-09-23T12:25:23.593Z,24.44
2023-09-23T12:26:23.823Z,24.56
2023-09-23T12:27:24.013Z,24.39
2023-09-23T12:28:23.599Z,23.75
2023-09-23T12:29:23.700Z,23.04
2023-09-23T12:30:23.545Z,22.22
2023-09-23T12:31:23.518Z,21.64
2023-09-23T12:32:23.809Z,21.16
2023-09-23T12:33:23.521Z,20.83
2023-09-23T12:34:23.775Z,20.54
2023-09-23T12:35:23.650Z,20.28
2023-09-23T12:36:23.441Z,20.12
2023-09-23T12:37:23.648Z,20.05
2023-09-23T12:38:23.494Z,20.23
2023-09-23T12:39:23.514Z,20.53
2023-09-23T12:40:23.498Z,20.84
2023-09-23T12:41:23.465Z,20.87
2023-09-23T12:42:23.552Z,20.83
2023-09-23T12:43:23.856Z,20.81
2023-09-23T12:44:23.663Z,20.66
2023-09-23T12:45:23.364Z,20.53
2023-09-23T12:46:23.589Z,20.33
2023-09-23T12:47:23.420Z,20.35
2023-09-23T12:48:23.646Z,20.69
2023-09-23T12:49:23.366Z,20.72
2023-09-23T12:50:23.567Z,20.77
2023-09-23T12:51:23.438Z,20.72
2023-09-23T12:52:23.609Z,20.66